Terminal Aerodrome Forecast
Issued by NWS

Home | Current Version | Previous Version | Text Only | Print | Product List | Glossary Off
Versions: 1 2 3 4 5 6 7 8 9 10 11 12 13 14 15 16 17 18 19 20 21 22 23 24 25

493
FTUS43 KLOT 232335
TAFDPA
TAF
KDPA 232335Z 2400/2424 11005KT P6SM SCT250
     FM241400 18008KT P6SM FEW150
     FM241900 15007KT P6SM FEW060 FEW150
     FM242300 10008KT P6SM FEW150=

USA.gov is the U.S. government's official web portal to all federal, state and local government web resources and services.